KRFD/RFD METAR and TAF weather

Enter ICAO airport designator
Station Type Date Time Source
KRFD METAR 2019/03/21 02:54 UTC NOAA

KRFD 210254Z 34011KT 10SM -RA OVC018 04/01 A2995 RMK AO2 SLP146 P0000 60000 T00390011 51018


Station Type Date Time Source
KRFD Decoded METAR 2019/03/21 02:54 UTC NOAA

GREATER ROCKFORD AIRPORT, IL, United States (KRFD) 42-12N 89-06W 221M
Mar 20, 2019 - 10:54 PM EDT / 2019.03.21 0254 UTC
Wind: from the NNW (340 degrees) at 13 MPH (11 KT):0
Visibility: 10 mile(s):0
Sky conditions: overcast
Weather: light rain
Precipitation last hour: A trace
Temperature: 39.0 F (3.9 C)
Dew Point: 34.0 F (1.1 C)
Relative Humidity: 81%
Pressure (altimeter): 29.95 in. Hg (1014 hPa)
Pressure tendency: 0.05 inches (1.8 hPa) higher than three hours ago
ob: KRFD 210254Z 34011KT 10SM -RA OVC018 04/01 A2995 RMK AO2 SLP146 P0000 60000 T00390011 51018
cycle: 3

Station Type Date Time Source
KRFD TAF 2019/03/21 03:15 UTC NOAA

TAF KRFD 210309Z 2103/2124 32011KT P6SM VCSH OVC018
TEMPO 2103/2105 6SM -SHRA
FM210600 33011KT P6SM OVC012
FM211700 30010KT P6SM SCT025

Example: see airport list